• Join FlightAware (Why Join?)
  • Login
  • US Flag 
05:13AM EDT


 

Airport Tracker/Info


-or-


 

Live Flight TrackerFlight Track Log ✈ N865JM ✈ 21-Oct-2013 ✈ KHPN - KAPF

Flight Track Log - Related Links

Times and Time Zones

All times are in EDT time to prevent confusion due to time zone crossing. See the N865JM flight status page for this flight to view local times or setup timezone preferences in your user account.

Time Position Orientation Groundspeed Altitude Reporting Facility
EDT Latitude Longitude Course Direction KTS MPH feet Rate Location/Type
10:08AM 41.0833 -73.7167 288° West 194 223 1,200  Level New York TRACON
10:09AM 41.1000 -73.7833 288° West 197 227 3,600 2,700 Climbing New York TRACON
10:10AM 41.1000 -73.8833 270° West 257 296 6,700 1,680 Climbing New York TRACON
10:11AM 41.0833 -73.9667 255° West 268 308 7,000 120 Climbing New York TRACON
10:12AM 41.0167 -74.0167 210° Southwest 260 299 7,000 360 Level New York TRACON
10:13AM 40.9500 -74.0167 180° South 270 311 7,800 1,140 Climbing New York TRACON
10:14AM 40.8833 -74.0167 180° South 270 311 9,300 1,500 Climbing New York TRACON
10:15AM 40.8167 -74.0500 201° Southwest 275 316 10,900 1,260 Climbing New York TRACON
10:16AM 40.7333 -74.1000 204° Southwest 280 322 11,900 540 Climbing New York TRACON
10:17AM 40.6667 -74.1333 201° Southwest 283 326 12,000  Climbing New York TRACON
10:18AM 40.6167 -74.2000 225° Southwest 272 313 12,000  Level New York TRACON
10:19AM 40.5833 -74.2833 242° Southwest 278 320 12,000 1,320 Level New York TRACON
10:21AM 40.4408 -74.2017 156° South 317 365 15,700 1,800 Climbing New York Center
10:22AM 40.4047 -74.0797 111° Southeast 335 386 17,000 600 Climbing New York Center
10:23AM 40.3403 -74.0031 138° Southeast 308 354 17,000  Level New York Center
10:24AM 40.2619 -74.0511 205° Southwest 252 290 17,000 420 Level New York Center
10:25AM 40.1464 -74.1422 211° Southwest 299 344 18,100 1,260 Climbing Washington Center
10:26AM 40.0719 -74.2008 211° Southwest 350 403 20,300 1,860 Climbing Washington Center
10:27AM 39.9772 -74.2783 212° Southwest 368 423 21,900 1,680 Climbing Washington Center
10:28AM 39.9008 -74.3500 216° Southwest 378 435 23,700 1,860 Climbing Washington Center
10:29AM 39.8142 -74.4408 219° Southwest 378 435 25,600 1,620 Climbing Washington Center
10:30AM 39.7483 -74.5256 225° Southwest 373 429 27,000 1,440 Climbing Washington Center
10:31AM 39.6681 -74.6319 226° Southwest 373 429 28,600 1,440 Climbing Washington Center
10:32AM 39.6000 -74.7189 225° Southwest 379 436 30,000 1,320 Climbing Washington Center
10:33AM 39.5214 -74.8247 226° Southwest 379 436 31,400 1,140 Climbing Washington Center
10:34AM 39.4511 -74.9169 225° Southwest 379 436 32,300 960 Climbing Washington Center
10:35AM 39.3767 -75.0144 225° Southwest 379 436 33,400 1,140 Climbing Washington Center
10:36AM 39.3061 -75.1061 225° Southwest 379 436 34,700 1,440 Climbing Washington Center
10:37AM 39.2378 -75.1950 225° Southwest 361 415 36,300 1,500 Climbing Washington Center
10:38AM 39.1733 -75.2783 225° Southwest 345 397 37,700 1,320 Climbing Washington Center
10:39AM 39.1131 -75.3428 220° Southwest 324 373 39,000 1,140 Climbing Washington Center
10:40AM 39.0194 -75.3753 195° South 324 373 40,000 480 Climbing Washington Center
10:41AM 38.9214 -75.3942 189° South 344 396 40,000  Level Washington Center
10:42AM 38.8214 -75.4131 188° South 361 415 40,000  Level Washington Center
10:43AM 38.7150 -75.4375 190° South 374 430 40,000 -60 Level Washington Center
10:44AM 38.6047 -75.4589 189° South 388 447 39,900  Descending Washington Center
10:45AM 38.4881 -75.4775 187° South 388 447 40,000  Climbing Washington Center
10:46AM 38.3836 -75.5017 190° South 388 447 40,000  Level Washington Center
10:47AM 38.2858 -75.5442 199° South 388 447 40,000  Level Washington Center
10:48AM 38.1939 -75.5997 205° Southwest 377 434 40,000  Level Washington Center
10:49AM 38.1042 -75.6578 207° Southwest 366 421 40,000  Level Washington Center
10:50AM 38.0292 -75.7131 210° Southwest 366 421 40,000  Level Washington Center
10:51AM 37.9394 -75.7708 207° Southwest 360 414 40,000  Level Washington Center
10:52AM 37.8497 -75.8231 205° Southwest 360 414 40,000  Level Washington Center
10:53AM 37.7600 -75.8808 207° Southwest 360 414 40,000  Level Washington Center
10:54AM 37.6681 -75.9381 206° Southwest 365 420 40,000  Level Washington Center
10:55AM 37.5781 -75.9928 206° Southwest 365 420 40,000  Level Washington Center
10:56AM 37.4842 -76.0472 205° Southwest 365 420 40,000  Level Washington Center
10:57AM 37.3942 -76.1042 207° Southwest 365 420 40,000  Level Washington Center
10:58AM 37.2917 -76.1583 203° Southwest 365 420 40,000  Level Washington Center
10:59AM 37.2081 -76.2100 206° Southwest 372 428 40,000  Level Washington Center
11:00AM 37.1264 -76.2586 205° Southwest 372 428 40,000  Level Washington Center
11:01AM 37.0175 -76.3256 206° Southwest 366 421 40,000  Level Washington Center
11:02AM 36.9275 -76.3792 205° Southwest 361 415 40,000  Level Washington Center
11:03AM 36.8333 -76.4353 206° Southwest 361 415 40,000  Level Washington Center
11:04AM 36.7431 -76.4914 206° Southwest 361 415 40,000  Level Washington Center
11:05AM 36.6531 -76.5500 208° Southwest 361 415 40,000  Level Washington Center
11:06AM 36.5608 -76.6031 205° Southwest 361 415 40,000  Level Washington Center
11:07AM 36.4706 -76.6561 205° Southwest 361 415 40,000  Level Washington Center
11:08AM 36.3783 -76.7092 205° Southwest 361 415 40,000  Level Washington Center
11:09AM 36.2858 -76.7619 205° Southwest 361 415 40,000  Level Washington Center
11:10AM 36.1956 -76.8172 206° Southwest 361 415 40,000  Level Washington Center
11:11AM 36.1033 -76.8697 205° Southwest 361 415 40,000  Level Washington Center
11:12AM 36.0108 -76.9222 205° Southwest 361 415 40,000  Level Washington Center
11:13AM 35.9206 -76.9744 205° Southwest 361 415 40,000  Level Washington Center
11:14AM 35.8261 -77.0217 202° Southwest 361 415 40,000  Level Washington Center
11:15AM 35.7256 -77.0606 197° South 366 421 40,000  Level Washington Center
11:16AM 35.6417 -77.0922 197° South 381 438 40,000  Level Washington Center
11:17AM 35.5389 -77.1339 198° South 376 433 40,000  Level Washington Center
11:18AM 35.4361 -77.1725 197° South 376 433 40,000  Level Washington Center
11:19AM 35.3356 -77.2114 198° South 381 438 40,000  Level Washington Center
11:20AM 35.2350 -77.2500 197° South 386 444 40,000  Level Washington Center
11:21AM 35.1319 -77.2911 198° South 386 444 40,000  Level Washington Center
11:22AM 35.0333 -77.3272 197° South 381 438 40,000  Level Washington Center
11:23AM 34.9306 -77.3653 197° South 386 444 40,000  Level Washington Center
11:24AM 34.8194 -77.4136 200° South 386 444 40,000  Level Washington Center
11:25AM 34.7164 -77.4517 197° South 386 444 40,000  Level Washington Center
11:26AM 34.6117 -77.4897 197° South 386 444 40,000  Level Washington Center
11:27AM 34.5086 -77.5303 198° South 386 444 40,000  Level Washington Center
11:28AM 34.4058 -77.5681 197° South 386 444 40,000  Level Washington Center
11:29AM 34.3008 -77.6083 198° South 386 444 40,000  Level Washington Center
11:31AM 34.1411 -77.6642 196° South 395 455 40,000  Level Jacksonville Center
11:32AM 34.0342 -77.7031 197° South 400 460 40,000  Level Jacksonville Center
11:33AM 33.9294 -77.7419 197° South 400 460 40,000  Level Jacksonville Center
11:34AM 33.8247 -77.7806 197° South 395 455 40,000  Level Jacksonville Center
11:35AM 33.7197 -77.8189 197° South 395 455 40,000  Level Jacksonville Center
11:36AM 33.6006 -77.8658 198° South 395 455 40,000  Level Jacksonville Center
11:37AM 33.4956 -77.9017 196° South 395 455 40,000  Level Jacksonville Center
11:38AM 33.3908 -77.9422 198° South 395 455 40,000  Level Jacksonville Center
11:39AM 33.2858 -77.9806 197° South 395 455 40,000  Level Jacksonville Center
11:40AM 33.2014 -78.0100 196° South 395 455 40,000  Level Jacksonville Center
11:41AM 33.0739 -78.0589 198° South 395 455 40,000  Level Jacksonville Center
11:42AM 32.9669 -78.0944 196° South 395 455 40,000  Level Jacksonville Center
11:43AM 32.8744 -78.1317 199° South 395 455 40,000  Level Jacksonville Center
11:44AM 32.7692 -78.1667 196° South 395 455 40,000  Level Jacksonville Center
11:45AM 32.6622 -78.2044 197° South 395 455 40,000  Level Jacksonville Center
11:46AM 32.5550 -78.2444 197° South 395 455 40,000  Level Jacksonville Center
11:47AM 32.4478 -78.2794 195° South 395 455 40,000  Level Jacksonville Center
11:48AM 32.3325 -78.3247 198° South 400 460 40,000  Level Jacksonville Center
11:49AM 32.2233 -78.3644 197° South 406 467 40,000  Level Jacksonville Center
11:50AM 32.1161 -78.4042 197° South 401 461 40,000  Level Jacksonville Center
11:51AM 32.0089 -78.4411 196° South 396 456 40,000  Level Jacksonville Center
11:52AM 31.9019 -78.4806 197° South 396 456 40,000  Level Jacksonville Center
11:53AM 31.7986 -78.5150 196° South 390 449 40,000  Level Jacksonville Center
11:54AM 31.6875 -78.5567 198° South 405 466 40,000  Level Jacksonville Center
11:55AM 31.5847 -78.6056 202° Southwest 405 466 40,000  Level Jacksonville Center
11:56AM 31.4839 -78.6539 202° Southwest 407 468 40,000  Level Jacksonville Center
11:57AM 31.3811 -78.7022 202° Southwest 407 468 40,000  Level Jacksonville Center
11:58AM 31.2806 -78.7506 202° Southwest 405 466 40,000  Level Jacksonville Center
11:59AM 31.1758 -78.8086 205° Southwest 397 457 40,000  Level Jacksonville Center
12:00PM 31.0706 -78.8447 196° South 403 464 40,000  Level Jacksonville Center
12:01PM 30.9614 -78.8858 198° South 409 471 40,000  Level Jacksonville Center
12:02PM 30.8519 -78.9267 198° South 414 476 40,000  Level Jacksonville Center
12:03PM 30.7406 -78.9675 197° South 420 483 40,000  Level Jacksonville Center
12:04PM 30.6269 -79.0083 197° South 429 494 40,000  Level Jacksonville Center
12:05PM 30.5639 -79.0303 197° South 425 489 40,000  Level Miami Center
12:06PM 30.4550 -79.0714 198° South 419 482 40,000  Level Miami Center
12:07PM 30.3397 -79.1147 198° South 419 482 40,000  Level Miami Center
12:08PM 30.2328 -79.1533 197° South 427 491 40,000  Level Miami Center
12:09PM 30.1153 -79.1939 197° South 427 491 40,000  Level Miami Center
12:10PM 29.9997 -79.2511 203° Southwest 427 491 40,000  Level Miami Center
12:11PM 29.8925 -79.3064 204° Southwest 421 484 40,000  Level Miami Center
12:12PM 29.8231 -79.3453 206° Southwest 415 478 40,000  Level Miami Center
12:13PM 29.7003 -79.4475 216° Southwest 415 478 40,000  Level Miami Center
12:14PM 29.6031 -79.5169 212° Southwest 415 478 40,000 -540 Level Miami Center
12:15PM 29.5078 -79.5861 212° Southwest 420 483 39,000 -1,260 Descending Miami Center
12:16PM 29.4106 -79.6575 213° Southwest 420 483 37,500 -1,500 Descending Miami Center
12:17PM 29.3092 -79.7239 210° Southwest 420 483 36,100 -1,500 Descending Miami Center
12:18PM 29.2158 -79.7950 214° Southwest 426 490 34,600 -1,500 Descending Miami Center
12:19PM 29.1100 -79.8683 211° Southwest 426 490 33,100 -1,500 Descending Miami Center
12:20PM 29.0147 -79.9392 213° Southwest 426 490 31,700 -1,500 Descending Miami Center
12:21PM 28.9108 -80.0100 211° Southwest 426 490 30,200 -1,500 Descending Miami Center
12:22PM 28.8133 -80.0831 213° Southwest 426 490 28,700 -1,380 Descending Miami Center
12:23PM 28.7094 -80.1556 211° Southwest 432 497 27,200 -1,500 Descending Miami Center
12:24PM 28.5864 -80.2394 211° Southwest 438 504 25,400 -1,560 Descending Miami Center
12:25PM 28.4947 -80.3242 219° Southwest 432 497 24,100 -1,080 Descending Miami Center
12:26PM 28.4461 -80.4264 242° Southwest 416 479 23,300 -960 Descending Miami Center
12:27PM 28.3928 -80.5569 245° Southwest 416 479 22,200 -660 Descending Miami Center
12:28PM 28.3461 -80.6733 246° West 416 479 22,000 -300 Descending Miami Center
12:29PM 28.2989 -80.7942 246° West 416 479 21,700 -660 Descending Miami Center
12:30PM 28.2519 -80.9081 245° Southwest 416 479 20,700 -900 Descending Miami Center
12:31PM 28.2028 -81.0242 244° Southwest 416 479 20,000 -360 Descending Miami Center
12:32PM 28.1600 -81.1283 245° Southwest 416 479 20,000  Level Miami Center
12:33PM 28.1128 -81.2444 245° Southwest 411 473 20,000  Level Miami Center
12:34PM 28.0544 -81.3692 242° Southwest 417 480 20,000  Level Miami Center
12:35PM 27.9750 -81.4411 219° Southwest 411 473 20,000  Level Miami Center
12:36PM 27.8656 -81.4742 195° South 411 473 20,000 -480 Level Miami Center
12:37PM 27.7528 -81.4744 180° South 398 458 19,100 -1,200 Descending Miami Center
12:38PM 27.6275 -81.4764 181° South 410 472 17,700 -1,380 Descending Miami Center
12:39PM 27.5169 -81.4767 180° South 405 466 16,400 -1,440 Descending Miami Center
12:40PM 27.4042 -81.4792 181° South 405 466 14,900 -1,440 Descending Miami Center
12:41PM 27.2956 -81.4794 180° South 405 466 13,600 -1,380 Descending Miami Center
12:42PM 27.1869 -81.4797 180° South 400 460 12,200 -1,380 Descending Miami Center
12:43PM 27.0806 -81.4803 180° South 400 460 10,900 -1,140 Descending Miami Center
12:44PM 26.9786 -81.4669 173° South 387 445 10,000 -480 Descending Miami Center
12:45PM 26.8903 -81.4214 155° Southeast 377 434 10,000 -60 Level Miami Center
12:46PM 26.7956 -81.3806 159° South 374 430 9,900 -600 Descending Miami Center
12:47PM 26.7117 -81.3911 186° South 297 342 8,900 -960 Descending Miami Center
12:48PM 26.6364 -81.3953 183° South 289 333 8,000 -660 Descending Miami Center
12:49PM 26.5633 -81.3972 181° South 273 314 7,600 -1,320 Descending Miami Center
12:50PM 26.4897 -81.4153 192° South 273 314 5,400 -1,320 Descending Miami Center
12:51PM 26.4222 -81.4381 197° South 263 303 5,000 -840 Descending Miami Center
12:52PM 26.3667 -81.4753 211° Southwest 246 283 3,800 -1,200 Descending Miami Center
12:54PM 26.2558 -81.6247 230° Southwest  Level FlightAware Approximate
01:01PM 26.1500 -81.7667 215° Southwest  Level FlightAware Approximate
01:02PM 26.1524 -81.7756 215° Southwest  Level Estimated
01:03PM 26.1524 -81.7756 215° Southwest  Level Estimated
01:04PM 26.1524 -81.7756 215° Southwest  Level Estimated
01:05PM 26.1524 -81.7756 215° Southwest  Level Estimated
01:06PM 26.1524 -81.7756 215° Southwest  Level Estimated